createdAt,value
2022-12-01T00:01:13.806Z,97164.97
2022-12-01T00:03:42.739Z,97160.88
2022-12-01T00:06:12.654Z,97154.75
2022-12-01T00:08:40.179Z,97157.34
2022-12-01T00:11:08.474Z,97157.50
2022-12-01T00:13:36.479Z,97158.53
2022-12-01T00:16:11.283Z,97156.91
2022-12-01T00:18:38.855Z,97156.09
2022-12-01T00:21:14.241Z,97160.47
2022-12-01T00:23:43.933Z,97157.88
2022-12-01T00:26:11.432Z,97154.34
2022-12-01T00:28:39.090Z,97156.91
2022-12-01T00:31:08.224Z,97158.81
2022-12-01T00:33:35.767Z,97157.19
2022-12-01T00:36:04.604Z,97159.88
2022-12-01T00:38:34.654Z,97156.72
2022-12-01T00:41:02.632Z,97162.84
2022-12-01T00:43:30.140Z,97162.03
2022-12-01T00:45:58.058Z,97165.31
2022-12-01T00:48:25.817Z,97167.22
2022-12-01T00:50:54.216Z,97162.03
2022-12-01T00:53:22.621Z,97168.94
2022-12-01T00:55:53.791Z,97168.16
2022-12-01T00:58:21.508Z,97172.50
2022-12-01T01:00:49.089Z,97176.69
2022-12-01T01:03:16.933Z,97174.00
2022-12-01T01:05:45.097Z,97174.81
2022-12-01T01:08:14.844Z,97173.06
2022-12-01T01:10:44.235Z,97174.28
2022-12-01T01:13:14.037Z,97176.97
2022-12-01T01:15:41.884Z,97176.97
2022-12-01T01:18:09.803Z,97177.78
2022-12-01T01:20:37.372Z,97174.38
2022-12-01T01:23:04.927Z,97176.00
2022-12-01T01:25:32.704Z,97168.16
2022-12-01T01:28:00.260Z,97165.44
2022-12-01T01:30:29.229Z,97162.84
2022-12-01T01:32:56.809Z,97163.78
2022-12-01T01:35:24.328Z,97165.69
2022-12-01T01:37:51.902Z,97164.88
2022-12-01T01:40:19.834Z,97158.19
2022-12-01T01:42:47.376Z,97167.84
2022-12-01T01:45:22.080Z,97160.22
2022-12-01T01:47:52.887Z,97158.72
2022-12-01T01:50:24.205Z,97158.16
2022-12-01T01:52:56.433Z,97156.63
2022-12-01T01:55:24.013Z,97162.75
2022-12-01T01:57:51.636Z,97164.63
2022-12-01T02:00:22.044Z,97167.34
2022-12-01T02:02:51.658Z,97174.28
2022-12-01T02:05:22.654Z,97164.22
2022-12-01T02:07:51.960Z,97166.78
2022-12-01T02:10:23.272Z,97166.78
2022-12-01T02:13:03.188Z,97161.63
2022-12-01T02:15:36.833Z,97164.44
2022-12-01T02:18:22.348Z,97160.25
2022-12-01T02:21:17.118Z,97156.69
2022-12-01T02:24:13.000Z,97158.72
2022-12-01T02:26:50.759Z,97154.75
2022-12-01T02:29:54.460Z,97150.69
2022-12-01T02:32:30.007Z,97149.03
2022-12-01T02:35:00.898Z,97151.72
2022-12-01T02:37:34.089Z,97143.28
2022-12-01T02:40:11.504Z,97149.28
2022-12-01T02:42:53.512Z,97152.69
2022-12-01T02:45:29.054Z,97153.50
2022-12-01T02:48:02.003Z,97156.06
2022-12-01T02:50:32.178Z,97146.72
2022-12-01T02:53:02.148Z,97151.88
2022-12-01T02:55:29.698Z,97150.91
2022-12-01T02:57:57.285Z,97148.44
2022-12-01T03:00:24.929Z,97154.44
2022-12-01T03:03:14.093Z,97147.63
2022-12-01T03:05:51.650Z,97146.03
2022-12-01T03:08:27.973Z,97143.56
2022-12-01T03:10:57.834Z,97134.03
2022-12-01T03:13:39.041Z,97142.47
2022-12-01T03:16:12.695Z,97141.66
2022-12-01T03:18:47.296Z,97139.19
2022-12-01T03:21:22.694Z,97139.19
2022-12-01T03:23:55.901Z,97135.00
2022-12-01T03:26:26.575Z,97138.50
2022-12-01T03:28:57.735Z,97140.97
2022-12-01T03:31:30.042Z,97137.44
2022-12-01T03:34:04.147Z,97142.75
2022-12-01T03:36:38.256Z,97138.38
2022-12-01T03:39:13.023Z,97137.59
2022-12-01T03:41:47.897Z,97135.13
2022-12-01T03:44:20.170Z,97138.50
2022-12-01T03:46:52.640Z,97141.09
2022-12-01T03:49:24.635Z,97141.94
2022-12-01T03:52:01.736Z,97147.09
2022-12-01T03:54:39.353Z,97145.44
2022-12-01T03:57:12.702Z,97144.63
2022-12-01T03:59:41.683Z,97142.03
2022-12-01T04:02:09.483Z,97139.69
2022-12-01T04:04:38.469Z,97136.19
2022-12-01T04:07:06.246Z,97137.13
2022-12-01T04:09:33.790Z,97142.97
2022-12-01T04:12:18.789Z,97140.41
2022-12-01T04:14:46.292Z,97144.50
2022-12-01T04:17:13.803Z,97141.09
2022-12-01T04:19:42.655Z,97151.41
2022-12-01T04:22:10.187Z,97146.13
2022-12-01T04:24:37.713Z,97137.59
2022-12-01T04:27:05.424Z,97139.91
2022-12-01T04:29:32.943Z,97138.00
2022-12-01T04:32:00.531Z,97142.25
2022-12-01T04:34:28.158Z,97135.19
2022-12-01T04:36:57.076Z,97130.69
2022-12-01T04:39:24.603Z,97128.00
2022-12-01T04:41:52.125Z,97121.91
2022-12-01T04:44:19.649Z,97121.91
2022-12-01T04:46:47.319Z,97127.88
2022-12-01T04:49:15.079Z,97128.81
2022-12-01T04:51:42.567Z,97124.34
2022-12-01T04:54:11.535Z,97122.59
2022-12-01T04:56:39.170Z,97131.84
2022-12-01T04:59:06.838Z,97126.53
2022-12-01T05:01:34.549Z,97129.25
2022-12-01T05:04:02.203Z,97136.88
2022-12-01T05:06:30.247Z,97140.97
2022-12-01T05:08:59.903Z,97139.75
2022-12-01T05:11:30.466Z,97143.03
2022-12-01T05:13:58.218Z,97147.25
2022-12-01T05:16:27.786Z,97147.25
2022-12-01T05:19:18.214Z,97150.78
2022-12-01T05:21:46.603Z,97145.59
2022-12-01T05:24:15.049Z,97137.75
2022-12-01T05:26:44.795Z,97148.06
2022-12-01T05:29:13.464Z,97143.03
2022-12-01T05:31:41.278Z,97150.53
2022-12-01T05:34:09.072Z,97139.41
2022-12-01T05:36:36.731Z,97143.47
2022-12-01T05:39:04.832Z,97153.81
2022-12-01T05:41:32.461Z,97139.81
2022-12-01T05:44:01.382Z,97146.50
2022-12-01T05:46:29.056Z,97137.81
2022-12-01T05:48:56.632Z,97141.31
2022-12-01T05:51:24.176Z,97137.94
2022-12-01T05:53:51.720Z,97136.28
2022-12-01T05:56:19.233Z,97136.16
2022-12-01T05:58:46.773Z,97138.75
2022-12-01T06:01:15.933Z,97142.97
2022-12-01T06:03:43.487Z,97136.16
2022-12-01T06:06:11.151Z,97135.34
2022-12-01T06:08:38.819Z,97144.72
2022-12-01T06:11:06.968Z,97147.31
2022-12-01T06:13:34.564Z,97144.59
2022-12-01T06:16:03.953Z,97152.34
2022-12-01T06:18:34.795Z,97149.75
2022-12-01T06:21:02.562Z,97147.44
2022-12-01T06:23:30.728Z,97161.06
2022-12-01T06:25:58.449Z,97152.22
2022-12-01T06:28:26.089Z,97150.44
2022-12-01T06:30:56.647Z,97153.03
2022-12-01T06:33:28.737Z,97158.19
2022-12-01T06:36:00.184Z,97153.31
2022-12-01T06:38:27.913Z,97158.47
2022-12-01T06:40:55.438Z,97163.63
2022-12-01T06:43:22.972Z,97164.56
2022-12-01T06:45:50.762Z,97163.88
2022-12-01T06:48:18.498Z,97164.94
2022-12-01T06:50:46.005Z,97164.38
2022-12-01T06:53:15.022Z,97170.63
2022-12-01T06:55:42.537Z,97171.00
2022-12-01T06:58:10.305Z,97165.94
2022-12-01T07:00:38.030Z,97178.16
2022-12-01T07:03:05.619Z,97172.44
2022-12-01T07:05:33.153Z,97171.75
2022-12-01T07:08:01.127Z,97174.34
2022-12-01T07:10:30.022Z,97163.06
2022-12-01T07:12:57.998Z,97167.41
2022-12-01T07:15:25.519Z,97158.03
2022-12-01T07:17:53.045Z,97163.22
2022-12-01T07:20:20.714Z,97164.13
2022-12-01T07:22:48.303Z,97156.38
2022-12-01T07:25:16.054Z,97167.53
2022-12-01T07:27:45.233Z,97164.81
2022-12-01T07:30:13.382Z,97169.06
2022-12-01T07:32:40.969Z,97175.72
2022-12-01T07:35:10.187Z,97178.31
2022-12-01T07:37:37.742Z,97179.00
2022-12-01T07:40:06.498Z,97182.28
2022-12-01T07:42:34.034Z,97174.38
2022-12-01T07:45:02.974Z,97175.22
2022-12-01T07:47:30.627Z,97177.66
2022-12-01T07:49:58.133Z,97183.63
2022-12-01T07:52:25.747Z,97183.41
2022-12-01T07:54:53.260Z,97183.41
2022-12-01T07:57:20.795Z,97182.22
2022-12-01T07:59:48.551Z,97186.19
2022-12-01T08:02:17.741Z,97184.84
2022-12-01T08:04:45.377Z,97185.41
2022-12-01T08:07:12.919Z,97187.88
2022-12-01T08:09:40.447Z,97185.13
2022-12-01T08:12:09.388Z,97189.38
2022-12-01T08:14:37.075Z,97192.88
2022-12-01T08:17:04.590Z,97186.66
2022-12-01T08:19:33.466Z,97192.88
2022-12-01T08:22:01.041Z,97193.72
2022-12-01T08:24:28.597Z,97195.47
2022-12-01T08:26:56.363Z,97198.63
2022-12-01T08:29:23.951Z,97195.66
2022-12-01T08:31:51.497Z,97187.53
2022-12-01T08:34:20.082Z,97187.41
2022-12-01T08:36:48.918Z,97198.44
2022-12-01T08:39:16.692Z,97188.09
2022-12-01T08:41:44.343Z,97188.78
2022-12-01T08:44:12.252Z,97188.50
2022-12-01T08:46:39.881Z,97189.91
2022-12-01T08:49:08.080Z,97193.97
2022-12-01T08:51:36.311Z,97188.69
2022-12-01T08:54:05.790Z,97199.84
2022-12-01T08:56:35.378Z,97187.03
2022-12-01T08:59:03.116Z,97199.16
2022-12-01T09:01:30.711Z,97203.78
2022-12-01T09:04:09.280Z,97204.97
2022-12-01T09:06:40.636Z,97207.69
2022-12-01T09:09:10.918Z,97203.44
2022-12-01T09:11:38.635Z,97200.75
2022-12-01T09:14:06.295Z,97215.44
2022-12-01T09:16:33.932Z,97210.38
2022-12-01T09:19:01.518Z,97211.06
2022-12-01T09:21:31.285Z,97214.47
2022-12-01T09:23:59.402Z,97207.41
2022-12-01T09:26:28.754Z,97213.53
2022-12-01T09:28:58.371Z,97204.97
2022-12-01T09:31:26.533Z,97214.34
2022-12-01T09:33:58.350Z,97205.66
2022-12-01T09:36:26.242Z,97212.56
2022-12-01T09:38:53.798Z,97212.03
2022-12-01T09:41:25.000Z,97203.31
2022-12-01T09:44:05.614Z,97203.31
2022-12-01T09:46:38.364Z,97198.97
2022-12-01T09:49:07.484Z,97197.78
2022-12-01T09:51:36.188Z,97198.84
2022-12-01T09:54:04.291Z,97197.22
2022-12-01T09:56:35.175Z,97192.19
2022-12-01T09:59:08.102Z,97192.06
2022-12-01T10:01:38.940Z,97188.50
2022-12-01T10:04:14.485Z,97186.50
2022-12-01T10:06:49.948Z,97183.66
2022-12-01T10:09:25.258Z,97179.28
2022-12-01T10:11:56.068Z,97177.41
2022-12-01T10:14:25.028Z,97183.72
2022-12-01T10:17:03.509Z,97179.66
2022-12-01T10:19:38.806Z,97171.38
2022-12-01T10:22:32.728Z,97168.50
2022-12-01T10:25:06.776Z,97169.19
2022-12-01T10:27:47.480Z,97164.72
2022-12-01T10:30:18.520Z,97156.00
2022-12-01T10:32:53.092Z,97158.47
2022-12-01T10:35:22.750Z,97148.94
2022-12-01T10:37:54.806Z,97153.84
2022-12-01T10:40:22.903Z,97153.47
2022-12-01T10:42:51.753Z,97153.34
2022-12-01T10:45:25.011Z,97151.44
2022-12-01T10:48:15.282Z,97156.31
2022-12-01T10:50:44.222Z,97147.59
2022-12-01T10:53:28.650Z,97149.25
2022-12-01T10:56:07.385Z,97150.47
2022-12-01T10:58:43.271Z,97145.56
2022-12-01T11:01:19.409Z,97139.44
2022-12-01T11:03:52.900Z,97143.81
2022-12-01T11:06:26.869Z,97139.44
2022-12-01T11:08:57.533Z,97132.38
2022-12-01T11:11:30.025Z,97131.28
2022-12-01T11:14:00.792Z,97126.91
2022-12-01T11:16:39.018Z,97132.78
2022-12-01T11:19:27.205Z,97131.84
2022-12-01T11:21:57.559Z,97135.38
2022-12-01T11:24:40.308Z,97136.22
2022-12-01T11:27:17.016Z,97132.78
2022-12-01T11:29:47.301Z,97134.44
2022-12-01T11:32:22.738Z,97133.47
2022-12-01T11:34:54.354Z,97126.25
2022-12-01T11:37:25.272Z,97137.00
2022-12-01T11:39:53.577Z,97126.53
2022-12-01T11:42:26.574Z,97128.16
2022-12-01T11:44:56.487Z,97123.69
2022-12-01T11:47:27.383Z,97120.41
2022-12-01T11:49:57.556Z,97119.47
2022-12-01T11:52:31.628Z,97114.97
2022-12-01T11:55:09.548Z,97119.06
2022-12-01T11:57:39.894Z,97122.88
2022-12-01T12:00:14.685Z,97123.28
2022-12-01T12:02:56.707Z,97121.25
2022-12-01T12:06:17.848Z,97115.00
2022-12-01T12:09:02.221Z,97119.88
2022-12-01T12:11:39.093Z,97113.88
2022-12-01T12:14:23.613Z,97113.09
2022-12-01T12:17:03.519Z,97107.34
2022-12-01T12:20:07.248Z,97105.56
2022-12-01T12:22:44.146Z,97105.56
2022-12-01T12:25:25.809Z,97105.44
2022-12-01T12:28:08.314Z,97115.00
2022-12-01T12:30:43.562Z,97108.84
2022-12-01T12:33:29.715Z,97102.72
2022-12-01T12:36:08.016Z,97102.44
2022-12-01T12:38:49.249Z,97106.53
2022-12-01T12:41:29.522Z,97100.53
2022-12-01T12:44:11.780Z,97092.09
2022-12-01T12:46:50.892Z,97104.91
2022-12-01T12:49:29.016Z,97090.19
2022-12-01T12:52:08.186Z,97094.44
2022-12-01T12:54:46.198Z,97092.50
2022-12-01T12:57:22.514Z,97087.19
2022-12-01T12:59:54.561Z,97083.50
2022-12-01T13:02:27.609Z,97080.78
2022-12-01T13:05:01.621Z,97089.22
2022-12-01T13:07:38.346Z,97097.13
2022-12-01T13:10:13.090Z,97092.91
2022-12-01T13:12:46.848Z,97084.19
2022-12-01T13:15:16.927Z,97089.91
2022-12-01T13:17:47.583Z,97086.34
2022-12-01T13:20:17.532Z,97081.03
2022-12-01T13:22:48.276Z,97087.72
2022-12-01T13:25:19.376Z,97078.72
2022-12-01T13:27:49.061Z,97081.19
2022-12-01T13:30:22.127Z,97083.91
2022-12-01T13:32:50.886Z,97083.91
2022-12-01T13:35:30.049Z,97084.88
2022-12-01T13:38:20.643Z,97082.53
2022-12-01T13:40:48.795Z,97085.00
2022-12-01T13:43:19.628Z,97082.13
2022-12-01T13:45:48.888Z,97081.03
2022-12-01T13:48:30.927Z,97080.75
2022-12-01T13:51:01.081Z,97075.28
2022-12-01T13:53:32.816Z,97078.56
2022-12-01T13:56:27.629Z,97086.88
2022-12-01T13:58:56.237Z,97084.97
2022-12-01T14:01:49.191Z,97074.59
2022-12-01T14:04:28.457Z,97070.53
2022-12-01T14:07:15.820Z,97070.53
2022-12-01T14:09:45.050Z,97070.66
2022-12-01T14:12:18.863Z,97069.69
2022-12-01T14:14:54.859Z,97073.78
2022-12-01T14:17:29.196Z,97069.41
2022-12-01T14:20:06.852Z,97078.97
2022-12-01T14:22:37.964Z,97081.00
2022-12-01T14:25:22.437Z,97076.81
2022-12-01T14:27:52.428Z,97083.59
2022-12-01T14:30:57.453Z,97075.16
2022-12-01T14:33:53.874Z,97076.38
2022-12-01T14:36:33.616Z,97082.50
2022-12-01T14:39:05.307Z,97074.06
2022-12-01T14:41:43.133Z,97075.84
2022-12-01T14:44:19.656Z,97074.84
2022-12-01T14:46:52.667Z,97076.50
2022-12-01T14:49:24.580Z,97079.22
2022-12-01T14:51:57.320Z,97073.25
2022-12-01T14:54:27.013Z,97084.28
2022-12-01T14:57:04.452Z,97069.03
2022-12-01T14:59:34.215Z,97074.34
2022-12-01T15:02:08.972Z,97081.13
2022-12-01T15:04:37.513Z,97070.66
2022-12-01T15:07:05.107Z,97075.69
2022-12-01T15:09:34.475Z,97075.69
2022-12-01T15:12:07.522Z,97075.69
2022-12-01T15:14:37.605Z,97077.63
2022-12-01T15:17:06.897Z,97072.28
2022-12-01T15:19:37.236Z,97071.34
2022-12-01T15:22:08.480Z,97079.09
2022-12-01T15:24:36.282Z,97082.38
2022-12-01T15:27:06.029Z,97073.63
2022-12-01T15:29:42.797Z,97074.31
2022-12-01T15:32:16.879Z,97076.22
2022-12-01T15:34:47.201Z,97072.94
2022-12-01T15:37:16.776Z,97079.22
2022-12-01T15:39:46.545Z,97081.00
2022-12-01T15:42:23.944Z,97080.03
2022-12-01T15:45:00.504Z,97080.03
2022-12-01T15:47:35.677Z,97082.78
2022-12-01T15:50:03.688Z,97078.41
2022-12-01T15:52:31.512Z,97077.63
2022-12-01T15:55:03.819Z,97092.03
2022-12-01T15:57:32.811Z,97089.44
2022-12-01T16:00:00.387Z,97087.81
2022-12-01T16:02:31.068Z,97090.41
2022-12-01T16:05:04.273Z,97088.66
2022-12-01T16:08:10.783Z,97089.44
2022-12-01T16:10:28.399Z,97094.50
2022-12-01T16:13:29.404Z,97084.28
2022-12-01T16:15:58.343Z,97086.88
2022-12-01T16:18:30.407Z,97087.81
2022-12-01T16:21:03.864Z,97085.22
2022-12-01T16:23:32.745Z,97077.63
2022-12-01T16:26:02.074Z,97080.47
2022-12-01T16:28:35.615Z,97079.66
2022-12-01T16:31:06.388Z,97089.31
2022-12-01T16:33:38.634Z,97086.88
2022-12-01T16:36:06.828Z,97090.56
2022-12-01T16:38:34.346Z,97082.41
2022-12-01T16:41:03.424Z,97084.44
2022-12-01T16:43:30.948Z,97083.34
2022-12-01T16:46:00.483Z,97086.63
2022-12-01T16:48:30.317Z,97092.06
2022-12-01T16:51:00.576Z,97089.50
2022-12-01T16:53:28.153Z,97086.09
2022-12-01T16:55:57.384Z,97087.19
2022-12-01T16:58:25.314Z,97087.19
2022-12-01T17:00:53.734Z,97085.66
2022-12-01T17:03:23.467Z,97090.44
2022-12-01T17:05:54.635Z,97098.09
2022-12-01T17:08:22.635Z,97095.50
2022-12-01T17:10:51.906Z,97093.59
2022-12-01T17:13:21.583Z,97092.63
2022-12-01T17:15:51.346Z,97087.31
2022-12-01T17:18:22.108Z,97095.63
2022-12-01T17:20:59.275Z,97088.53
2022-12-01T17:23:27.337Z,97091.94
2022-12-01T17:25:55.119Z,97090.97
2022-12-01T17:28:22.970Z,97098.88
2022-12-01T17:30:51.028Z,97090.31
2022-12-01T17:33:19.083Z,97090.16
2022-12-01T17:35:46.836Z,97094.53
2022-12-01T17:38:15.744Z,97089.50
2022-12-01T17:40:43.337Z,97093.03
2022-12-01T17:43:10.975Z,97088.81
2022-12-01T17:45:41.934Z,97090.72
2022-12-01T17:48:09.864Z,97085.84
2022-12-01T17:50:38.809Z,97088.53
2022-12-01T17:53:06.483Z,97097.13
2022-12-01T17:55:35.446Z,97096.19
2022-12-01T17:58:03.687Z,97087.75
2022-12-01T18:00:31.368Z,97092.91
2022-12-01T18:02:59.087Z,97089.22
2022-12-01T18:05:29.337Z,97094.28
2022-12-01T18:07:57.051Z,97092.50
2022-12-01T18:10:24.812Z,97098.34
2022-12-01T18:12:54.042Z,97099.28
2022-12-01T18:15:21.553Z,97089.63
2022-12-01T18:17:49.056Z,97092.38
2022-12-01T18:20:16.599Z,97095.91
2022-12-01T18:22:44.139Z,97092.38
2022-12-01T18:25:12.508Z,97089.91
2022-12-01T18:27:40.110Z,97097.00
2022-12-01T18:30:10.699Z,97087.44
2022-12-01T18:32:38.255Z,97091.00
2022-12-01T18:35:09.838Z,97090.72
2022-12-01T18:37:37.637Z,97091.69
2022-12-01T18:40:06.170Z,97093.59
2022-12-01T18:42:33.704Z,97096.44
2022-12-01T18:45:01.285Z,97087.88
2022-12-01T18:47:30.712Z,97083.50
2022-12-01T18:49:58.246Z,97082.56
2022-12-01T18:52:26.334Z,97091.00
2022-12-01T18:54:54.715Z,97088.25
2022-12-01T18:57:22.281Z,97080.66
2022-12-01T18:59:50.684Z,97079.97
2022-12-01T19:02:18.289Z,97075.75
2022-12-01T19:04:49.997Z,97073.16
2022-12-01T19:07:17.862Z,97070.56
2022-12-01T19:09:45.397Z,97069.50
2022-12-01T19:12:12.935Z,97071.41
2022-12-01T19:14:40.449Z,97075.75
2022-12-01T19:17:08.035Z,97071.53
2022-12-01T19:19:37.661Z,97069.19
2022-12-01T19:22:06.830Z,97063.22
2022-12-01T19:24:48.620Z,97068.25
2022-12-01T19:27:17.983Z,97061.19
2022-12-01T19:29:45.495Z,97065.38
2022-12-01T19:32:13.159Z,97064.56
2022-12-01T19:34:40.645Z,97061.19
2022-12-01T19:37:09.528Z,97063.09
2022-12-01T19:39:37.104Z,97058.59
2022-12-01T19:42:05.080Z,97066.22
2022-12-01T19:44:32.644Z,97060.88
2022-12-01T19:47:00.156Z,97066.75
2022-12-01T19:49:27.828Z,97061.06
2022-12-01T19:51:55.380Z,97070.56
2022-12-01T19:54:24.240Z,97066.34
2022-12-01T19:56:51.770Z,97067.28
2022-12-01T19:59:19.362Z,97063.22
2022-12-01T20:01:47.027Z,97070.84
2022-12-01T20:04:14.684Z,97075.91
2022-12-01T20:06:42.386Z,97077.66
2022-12-01T20:09:10.484Z,97080.09
2022-12-01T20:11:39.391Z,97081.88
2022-12-01T20:14:08.342Z,97086.09
2022-12-01T20:16:35.964Z,97078.06
2022-12-01T20:19:04.828Z,97080.66
2022-12-01T20:21:35.031Z,97079.28
2022-12-01T20:24:05.306Z,97081.88
2022-12-01T20:26:34.951Z,97087.19
2022-12-01T20:29:08.582Z,97082.81
2022-12-01T20:31:36.818Z,97085.41
2022-12-01T20:34:08.269Z,97074.38
2022-12-01T20:36:36.622Z,97082.13
2022-12-01T20:39:05.693Z,97073.03
2022-12-01T20:41:34.645Z,97080.94
2022-12-01T20:44:07.020Z,97074.94
2022-12-01T20:46:36.895Z,97073.03
2022-12-01T20:49:05.594Z,97069.50
2022-12-01T20:51:33.496Z,97070.84
2022-12-01T20:54:26.859Z,97069.75
2022-12-01T20:56:48.938Z,97069.88
2022-12-01T20:59:16.472Z,97072.47
2022-12-01T21:01:45.362Z,97071.78
2022-12-01T21:04:12.876Z,97065.81
2022-12-01T21:06:40.378Z,97065.97
2022-12-01T21:09:08.386Z,97065.00
2022-12-01T21:12:00.729Z,97069.19
2022-12-01T21:14:31.117Z,97064.56
2022-12-01T21:17:04.884Z,97058.84
2022-12-01T21:19:42.099Z,97062.41
2022-12-01T21:22:11.710Z,97061.59
2022-12-01T21:24:43.751Z,97054.50
2022-12-01T21:27:14.651Z,97051.78
2022-12-01T21:29:44.722Z,97048.50
2022-12-01T21:32:15.638Z,97047.00
2022-12-01T21:34:44.171Z,97056.41
2022-12-01T21:37:21.937Z,97049.34
2022-12-01T21:39:50.930Z,97040.19
2022-12-01T21:42:20.753Z,97046.03
2022-12-01T21:44:49.393Z,97049.44
2022-12-01T21:47:21.385Z,97045.91
2022-12-01T21:49:51.802Z,97037.47
2022-12-01T21:52:21.370Z,97045.09
2022-12-01T21:54:49.132Z,97043.19
2022-12-01T21:57:33.951Z,97043.03
2022-12-01T22:00:26.671Z,97039.63
2022-12-01T22:03:23.019Z,97047.41
2022-12-01T22:06:21.357Z,97043.19
2022-12-01T22:08:44.015Z,97042.22
2022-12-01T22:11:15.852Z,97037.34
2022-12-01T22:13:45.682Z,97028.91
2022-12-01T22:16:16.949Z,97030.81
2022-12-01T22:18:50.457Z,97029.16
2022-12-01T22:21:49.107Z,97032.44
2022-12-01T22:24:27.624Z,97035.31
2022-12-01T22:27:07.302Z,97041.41
2022-12-01T22:29:40.422Z,97044.69
2022-12-01T22:32:37.173Z,97031.91
2022-12-01T22:35:21.379Z,97034.34
2022-12-01T22:37:50.302Z,97030.13
2022-12-01T22:40:37.257Z,97025.75
2022-12-01T22:43:27.622Z,97024.16
2022-12-01T22:46:16.468Z,97025.88
2022-12-01T22:48:45.555Z,97021.69
2022-12-01T22:51:26.980Z,97019.09
2022-12-01T22:53:59.570Z,97018.28
2022-12-01T22:56:30.882Z,97017.44
2022-12-01T22:58:58.787Z,97016.38
2022-12-01T23:01:29.073Z,97015.53
2022-12-01T23:04:21.014Z,97014.47
2022-12-01T23:06:59.822Z,97020.16
2022-12-01T23:09:32.205Z,97010.50
2022-12-01T23:12:05.316Z,97019.59
2022-12-01T23:14:34.380Z,97013.63
2022-12-01T23:17:07.951Z,97012.38
2022-12-01T23:19:35.874Z,97012.38
2022-12-01T23:22:04.725Z,97001.34
2022-12-01T23:24:34.032Z,97002.47
2022-12-01T23:27:01.986Z,97002.47
2022-12-01T23:29:30.562Z,97003.53
2022-12-01T23:31:58.116Z,96999.19
2022-12-01T23:34:25.616Z,96991.56
2022-12-01T23:36:53.618Z,96997.69
2022-12-01T23:39:31.020Z,96997.84
2022-12-01T23:41:59.288Z,96988.31
2022-12-01T23:44:37.898Z,96996.19
2022-12-01T23:47:17.728Z,96986.81
2022-12-01T23:49:46.296Z,96986.13
2022-12-01T23:52:19.446Z,96977.41
2022-12-01T23:54:49.279Z,96981.63
2022-12-01T23:57:21.406Z,96980.41
2022-12-01T23:59:50.261Z,96975.22
